sensor_id;sensor_type;location;lat;lon;timestamp;temperature;humidity
32706;DHT22;19094;50.972;3.538;2023-05-10T00:01:04;17.40;73.60
32706;DHT22;19094;50.972;3.538;2023-05-10T00:03:30;17.40;72.80
32706;DHT22;19094;50.972;3.538;2023-05-10T00:05:58;17.40;73.60
32706;DHT22;19094;50.972;3.538;2023-05-10T00:08:24;17.40;72.80
32706;DHT22;19094;50.972;3.538;2023-05-10T00:10:50;17.40;72.70
32706;DHT22;19094;50.972;3.538;2023-05-10T00:13:15;17.40;72.60
32706;DHT22;19094;50.972;3.538;2023-05-10T00:15:41;17.40;72.60
32706;DHT22;19094;50.972;3.538;2023-05-10T00:18:07;17.40;72.70
32706;DHT22;19094;50.972;3.538;2023-05-10T00:20:33;17.40;72.90
32706;DHT22;19094;50.972;3.538;2023-05-10T00:22:58;17.40;72.90
32706;DHT22;19094;50.972;3.538;2023-05-10T00:25:24;17.40;72.90
32706;DHT22;19094;50.972;3.538;2023-05-10T00:27:50;17.40;72.70
32706;DHT22;19094;50.972;3.538;2023-05-10T00:30:16;17.40;72.90
32706;DHT22;19094;50.972;3.538;2023-05-10T00:32:41;17.40;72.90
32706;DHT22;19094;50.972;3.538;2023-05-10T00:35:07;17.40;72.70
32706;DHT22;19094;50.972;3.538;2023-05-10T00:37:33;17.40;72.60
32706;DHT22;19094;50.972;3.538;2023-05-10T00:39:59;17.40;72.70
32706;DHT22;19094;50.972;3.538;2023-05-10T00:42:25;17.40;72.80
32706;DHT22;19094;50.972;3.538;2023-05-10T00:44:50;17.40;72.80
32706;DHT22;19094;50.972;3.538;2023-05-10T00:47:16;17.40;72.70
32706;DHT22;19094;50.972;3.538;2023-05-10T00:49:42;17.40;72.80
32706;DHT22;19094;50.972;3.538;2023-05-10T00:52:09;17.40;72.80
32706;DHT22;19094;50.972;3.538;2023-05-10T00:54:35;17.40;72.70
32706;DHT22;19094;50.972;3.538;2023-05-10T00:57:00;17.40;72.60
32706;DHT22;19094;50.972;3.538;2023-05-10T00:59:26;17.40;72.50
32706;DHT22;19094;50.972;3.538;2023-05-10T01:01:53;17.40;73.30
32706;DHT22;19094;50.972;3.538;2023-05-10T01:04:19;17.40;72.60
32706;DHT22;19094;50.972;3.538;2023-05-10T01:06:47;17.40;72.40
32706;DHT22;19094;50.972;3.538;2023-05-10T01:09:12;17.40;72.40
32706;DHT22;19094;50.972;3.538;2023-05-10T01:11:38;17.40;72.60
32706;DHT22;19094;50.972;3.538;2023-05-10T01:14:05;17.40;72.30
32706;DHT22;19094;50.972;3.538;2023-05-10T01:16:37;17.40;72.40
32706;DHT22;19094;50.972;3.538;2023-05-10T01:19:30;17.40;72.30
32706;DHT22;19094;50.972;3.538;2023-05-10T01:27:25;17.30;72.30
32706;DHT22;19094;50.972;3.538;2023-05-10T01:30:15;17.20;72.60
32706;DHT22;19094;50.972;3.538;2023-05-10T01:33:30;17.20;72.60
32706;DHT22;19094;50.972;3.538;2023-05-10T01:38:37;17.20;72.50
32706;DHT22;19094;50.972;3.538;2023-05-10T01:41:14;17.20;72.60
32706;DHT22;19094;50.972;3.538;2023-05-10T01:43:57;17.20;72.50
32706;DHT22;19094;50.972;3.538;2023-05-10T01:46:37;17.20;72.50
32706;DHT22;19094;50.972;3.538;2023-05-10T01:49:11;17.20;72.60
32706;DHT22;19094;50.972;3.538;2023-05-10T01:51:44;17.20;72.60
32706;DHT22;19094;50.972;3.538;2023-05-10T01:54:13;17.20;72.60
32706;DHT22;19094;50.972;3.538;2023-05-10T01:56:39;17.20;72.50
32706;DHT22;19094;50.972;3.538;2023-05-10T01:59:11;17.20;72.50
32706;DHT22;19094;50.972;3.538;2023-05-10T02:01:40;17.20;72.50
32706;DHT22;19094;50.972;3.538;2023-05-10T02:04:07;17.20;72.60
32706;DHT22;19094;50.972;3.538;2023-05-10T02:06:33;17.20;72.60
32706;DHT22;19094;50.972;3.538;2023-05-10T02:09:01;17.20;72.70
32706;DHT22;19094;50.972;3.538;2023-05-10T02:11:28;17.20;72.60
32706;DHT22;19094;50.972;3.538;2023-05-10T02:13:55;17.20;72.50
32706;DHT22;19094;50.972;3.538;2023-05-10T02:16:24;17.20;72.50
32706;DHT22;19094;50.972;3.538;2023-05-10T02:18:52;17.20;72.60
32706;DHT22;19094;50.972;3.538;2023-05-10T02:21:19;17.20;72.50
32706;DHT22;19094;50.972;3.538;2023-05-10T02:23:46;17.20;72.40
32706;DHT22;19094;50.972;3.538;2023-05-10T02:26:12;17.30;72.40
32706;DHT22;19094;50.972;3.538;2023-05-10T02:28:40;17.30;72.30
32706;DHT22;19094;50.972;3.538;2023-05-10T02:31:08;17.30;72.50
32706;DHT22;19094;50.972;3.538;2023-05-10T02:33:38;17.20;72.40
32706;DHT22;19094;50.972;3.538;2023-05-10T02:36:07;17.20;72.40
32706;DHT22;19094;50.972;3.538;2023-05-10T02:38:33;17.20;72.50
32706;DHT22;19094;50.972;3.538;2023-05-10T02:41:00;17.20;72.50
32706;DHT22;19094;50.972;3.538;2023-05-10T02:43:28;17.30;72.40
32706;DHT22;19094;50.972;3.538;2023-05-10T02:45:55;17.20;72.40
32706;DHT22;19094;50.972;3.538;2023-05-10T02:48:20;17.20;72.50
32706;DHT22;19094;50.972;3.538;2023-05-10T02:50:47;17.20;72.50
32706;DHT22;19094;50.972;3.538;2023-05-10T02:53:21;17.20;72.50
32706;DHT22;19094;50.972;3.538;2023-05-10T02:55:50;17.20;72.70
32706;DHT22;19094;50.972;3.538;2023-05-10T02:58:17;17.20;72.90
32706;DHT22;19094;50.972;3.538;2023-05-10T03:00:44;17.10;72.70
32706;DHT22;19094;50.972;3.538;2023-05-10T03:03:10;17.10;72.80
32706;DHT22;19094;50.972;3.538;2023-05-10T03:05:36;17.20;72.80
32706;DHT22;19094;50.972;3.538;2023-05-10T03:08:02;17.20;72.70
32706;DHT22;19094;50.972;3.538;2023-05-10T03:10:30;17.20;72.80
32706;DHT22;19094;50.972;3.538;2023-05-10T03:13:16;17.10;73.50
32706;DHT22;19094;50.972;3.538;2023-05-10T03:15:58;17.10;72.70
32706;DHT22;19094;50.972;3.538;2023-05-10T03:18:31;17.10;72.80
32706;DHT22;19094;50.972;3.538;2023-05-10T03:21:03;17.10;72.90
32706;DHT22;19094;50.972;3.538;2023-05-10T03:23:39;17.10;72.70
32706;DHT22;19094;50.972;3.538;2023-05-10T03:26:07;17.20;72.60
32706;DHT22;19094;50.972;3.538;2023-05-10T03:28:34;17.20;72.70
32706;DHT22;19094;50.972;3.538;2023-05-10T03:31:02;17.20;72.80
32706;DHT22;19094;50.972;3.538;2023-05-10T03:33:28;17.10;72.80
32706;DHT22;19094;50.972;3.538;2023-05-10T03:35:54;17.10;72.80
32706;DHT22;19094;50.972;3.538;2023-05-10T03:38:19;17.10;72.70
32706;DHT22;19094;50.972;3.538;2023-05-10T03:40:45;17.10;72.60
32706;DHT22;19094;50.972;3.538;2023-05-10T03:43:11;17.10;72.60
32706;DHT22;19094;50.972;3.538;2023-05-10T03:45:36;17.10;72.70
32706;DHT22;19094;50.972;3.538;2023-05-10T03:48:02;17.10;72.70
32706;DHT22;19094;50.972;3.538;2023-05-10T03:50:28;17.10;72.70
32706;DHT22;19094;50.972;3.538;2023-05-10T03:52:53;17.10;72.80
32706;DHT22;19094;50.972;3.538;2023-05-10T03:55:19;17.10;72.70
32706;DHT22;19094;50.972;3.538;2023-05-10T03:57:45;17.10;73.50
32706;DHT22;19094;50.972;3.538;2023-05-10T04:00:11;17.20;72.70
32706;DHT22;19094;50.972;3.538;2023-05-10T04:02:37;17.10;72.90
32706;DHT22;19094;50.972;3.538;2023-05-10T04:05:03;17.10;72.60
32706;DHT22;19094;50.972;3.538;2023-05-10T04:07:28;17.10;72.60
32706;DHT22;19094;50.972;3.538;2023-05-10T04:09:54;17.10;72.50
32706;DHT22;19094;50.972;3.538;2023-05-10T04:12:20;17.20;72.60
32706;DHT22;19094;50.972;3.538;2023-05-10T04:14:45;17.20;72.50
32706;DHT22;19094;50.972;3.538;2023-05-10T04:17:11;17.20;72.50
32706;DHT22;19094;50.972;3.538;2023-05-10T04:19:37;17.20;72.60
32706;DHT22;19094;50.972;3.538;2023-05-10T04:22:03;17.10;72.60
32706;DHT22;19094;50.972;3.538;2023-05-10T04:24:28;17.10;72.50
32706;DHT22;19094;50.972;3.538;2023-05-10T04:26:55;17.10;72.50
32706;DHT22;19094;50.972;3.538;2023-05-10T04:29:20;17.10;73.30
32706;DHT22;19094;50.972;3.538;2023-05-10T04:31:46;17.10;72.50
32706;DHT22;19094;50.972;3.538;2023-05-10T04:34:12;17.10;72.50
32706;DHT22;19094;50.972;3.538;2023-05-10T04:36:38;17.10;72.50
32706;DHT22;19094;50.972;3.538;2023-05-10T04:39:03;17.10;72.50
32706;DHT22;19094;50.972;3.538;2023-05-10T04:41:29;17.10;72.50
32706;DHT22;19094;50.972;3.538;2023-05-10T04:43:55;17.10;72.50
32706;DHT22;19094;50.972;3.538;2023-05-10T04:46:21;17.10;72.60
32706;DHT22;19094;50.972;3.538;2023-05-10T04:48:47;17.10;73.50
32706;DHT22;19094;50.972;3.538;2023-05-10T04:51:12;17.10;72.70
32706;DHT22;19094;50.972;3.538;2023-05-10T04:53:38;17.00;72.80
32706;DHT22;19094;50.972;3.538;2023-05-10T04:56:04;17.00;72.70
32706;DHT22;19094;50.972;3.538;2023-05-10T04:58:30;17.00;72.80
32706;DHT22;19094;50.972;3.538;2023-05-10T05:00:56;17.00;72.80
32706;DHT22;19094;50.972;3.538;2023-05-10T05:03:22;17.00;72.70
32706;DHT22;19094;50.972;3.538;2023-05-10T05:05:47;17.00;72.60
32706;DHT22;19094;50.972;3.538;2023-05-10T05:08:13;17.00;72.70
32706;DHT22;19094;50.972;3.538;2023-05-10T05:10:39;17.00;72.70
32706;DHT22;19094;50.972;3.538;2023-05-10T05:13:05;17.00;72.70
32706;DHT22;19094;50.972;3.538;2023-05-10T05:15:31;17.00;72.80
32706;DHT22;19094;50.972;3.538;2023-05-10T05:17:56;17.00;73.00
32706;DHT22;19094;50.972;3.538;2023-05-10T05:20:22;17.00;73.10
32706;DHT22;19094;50.972;3.538;2023-05-10T05:22:48;17.00;73.00
32706;DHT22;19094;50.972;3.538;2023-05-10T05:25:13;17.00;72.80
32706;DHT22;19094;50.972;3.538;2023-05-10T05:27:40;17.00;72.90
32706;DHT22;19094;50.972;3.538;2023-05-10T05:30:06;17.00;73.00
32706;DHT22;19094;50.972;3.538;2023-05-10T05:32:32;17.00;73.00
32706;DHT22;19094;50.972;3.538;2023-05-10T05:34:58;17.00;72.90
32706;DHT22;19094;50.972;3.538;2023-05-10T05:37:23;17.00;73.00
32706;DHT22;19094;50.972;3.538;2023-05-10T05:39:49;17.00;72.90
32706;DHT22;19094;50.972;3.538;2023-05-10T05:42:15;17.00;73.00
32706;DHT22;19094;50.972;3.538;2023-05-10T05:44:43;17.00;73.00
32706;DHT22;19094;50.972;3.538;2023-05-10T05:47:09;17.00;73.20
32706;DHT22;19094;50.972;3.538;2023-05-10T05:49:34;16.90;73.00
32706;DHT22;19094;50.972;3.538;2023-05-10T05:52:03;17.00;73.10
32706;DHT22;19094;50.972;3.538;2023-05-10T05:54:30;17.00;73.00
32706;DHT22;19094;50.972;3.538;2023-05-10T05:57:00;17.00;73.00
32706;DHT22;19094;50.972;3.538;2023-05-10T05:59:26;17.00;73.00
32706;DHT22;19094;50.972;3.538;2023-05-10T06:01:51;17.00;72.90
32706;DHT22;19094;50.972;3.538;2023-05-10T06:04:18;17.00;72.90
32706;DHT22;19094;50.972;3.538;2023-05-10T06:06:43;17.00;72.90
32706;DHT22;19094;50.972;3.538;2023-05-10T06:09:10;17.10;72.70
32706;DHT22;19094;50.972;3.538;2023-05-10T06:11:36;17.10;72.80
32706;DHT22;19094;50.972;3.538;2023-05-10T06:14:03;17.10;72.80
32706;DHT22;19094;50.972;3.538;2023-05-10T06:16:30;17.10;72.70
32706;DHT22;19094;50.972;3.538;2023-05-10T06:18:56;17.10;72.80
32706;DHT22;19094;50.972;3.538;2023-05-10T06:21:21;17.00;73.60
32706;DHT22;19094;50.972;3.538;2023-05-10T06:23:47;17.10;72.90
32706;DHT22;19094;50.972;3.538;2023-05-10T06:26:13;17.10;72.90
32706;DHT22;19094;50.972;3.538;2023-05-10T06:28:39;17.10;72.80
32706;DHT22;19094;50.972;3.538;2023-05-10T06:31:06;17.10;72.90
32706;DHT22;19094;50.972;3.538;2023-05-10T06:33:32;17.10;72.90
32706;DHT22;19094;50.972;3.538;2023-05-10T06:35:57;17.10;73.00
32706;DHT22;19094;50.972;3.538;2023-05-10T06:38:23;17.10;73.60
32706;DHT22;19094;50.972;3.538;2023-05-10T06:40:49;17.10;72.80
32706;DHT22;19094;50.972;3.538;2023-05-10T06:43:15;17.10;72.70
32706;DHT22;19094;50.972;3.538;2023-05-10T06:45:40;17.20;72.60
32706;DHT22;19094;50.972;3.538;2023-05-10T06:48:06;17.10;72.70
32706;DHT22;19094;50.972;3.538;2023-05-10T06:50:32;17.10;72.70
32706;DHT22;19094;50.972;3.538;2023-05-10T06:52:58;17.10;72.70
32706;DHT22;19094;50.972;3.538;2023-05-10T06:55:25;17.00;72.70
32706;DHT22;19094;50.972;3.538;2023-05-10T06:57:51;17.00;72.70
32706;DHT22;19094;50.972;3.538;2023-05-10T07:00:18;17.10;72.70
32706;DHT22;19094;50.972;3.538;2023-05-10T07:02:44;17.10;72.70
32706;DHT22;19094;50.972;3.538;2023-05-10T07:05:13;17.10;72.60
32706;DHT22;19094;50.972;3.538;2023-05-10T07:07:39;17.10;72.50
32706;DHT22;19094;50.972;3.538;2023-05-10T07:10:05;17.20;72.20
32706;DHT22;19094;50.972;3.538;2023-05-10T07:12:31;17.20;72.00
32706;DHT22;19094;50.972;3.538;2023-05-10T07:14:57;17.30;71.90
32706;DHT22;19094;50.972;3.538;2023-05-10T07:17:22;17.20;71.80
32706;DHT22;19094;50.972;3.538;2023-05-10T07:19:48;17.20;72.00
32706;DHT22;19094;50.972;3.538;2023-05-10T07:22:15;17.20;71.90
32706;DHT22;19094;50.972;3.538;2023-05-10T07:24:42;17.20;71.80
32706;DHT22;19094;50.972;3.538;2023-05-10T07:27:08;17.20;71.80
32706;DHT22;19094;50.972;3.538;2023-05-10T07:29:34;17.20;71.80
32706;DHT22;19094;50.972;3.538;2023-05-10T07:32:00;17.20;71.80
32706;DHT22;19094;50.972;3.538;2023-05-10T07:34:26;17.20;71.80
32706;DHT22;19094;50.972;3.538;2023-05-10T07:36:52;17.20;71.80
32706;DHT22;19094;50.972;3.538;2023-05-10T07:39:18;17.20;71.80
32706;DHT22;19094;50.972;3.538;2023-05-10T07:41:43;17.20;71.80
32706;DHT22;19094;50.972;3.538;2023-05-10T07:44:09;17.10;71.90
32706;DHT22;19094;50.972;3.538;2023-05-10T07:46:35;17.10;71.90
32706;DHT22;19094;50.972;3.538;2023-05-10T07:49:00;17.20;71.90
32706;DHT22;19094;50.972;3.538;2023-05-10T07:51:26;17.20;71.80
32706;DHT22;19094;50.972;3.538;2023-05-10T07:53:53;17.20;71.80
32706;DHT22;19094;50.972;3.538;2023-05-10T07:56:27;17.20;71.80
32706;DHT22;19094;50.972;3.538;2023-05-10T07:58:55;17.20;71.80
32706;DHT22;19094;50.972;3.538;2023-05-10T08:01:22;17.20;71.70
32706;DHT22;19094;50.972;3.538;2023-05-10T08:03:48;17.20;71.70
32706;DHT22;19094;50.972;3.538;2023-05-10T08:06:15;17.20;71.60
32706;DHT22;19094;50.972;3.538;2023-05-10T08:08:41;17.20;71.70
32706;DHT22;19094;50.972;3.538;2023-05-10T08:11:07;17.30;71.60
32706;DHT22;19094;50.972;3.538;2023-05-10T08:13:33;17.30;71.50
32706;DHT22;19094;50.972;3.538;2023-05-10T08:15:59;17.40;71.30
32706;DHT22;19094;50.972;3.538;2023-05-10T08:18:25;17.40;71.30
32706;DHT22;19094;50.972;3.538;2023-05-10T08:20:50;17.40;71.50
32706;DHT22;19094;50.972;3.538;2023-05-10T08:23:16;17.30;71.70
32706;DHT22;19094;50.972;3.538;2023-05-10T08:25:41;17.40;71.50
32706;DHT22;19094;50.972;3.538;2023-05-10T08:28:07;17.30;71.50
32706;DHT22;19094;50.972;3.538;2023-05-10T08:30:33;17.30;71.60
32706;DHT22;19094;50.972;3.538;2023-05-10T08:32:58;17.30;71.50
32706;DHT22;19094;50.972;3.538;2023-05-10T08:35:24;17.30;71.80
32706;DHT22;19094;50.972;3.538;2023-05-10T08:37:51;17.30;71.70
32706;DHT22;19094;50.972;3.538;2023-05-10T08:40:19;17.30;71.80
32706;DHT22;19094;50.972;3.538;2023-05-10T08:42:54;17.30;71.70
32706;DHT22;19094;50.972;3.538;2023-05-10T08:45:23;17.40;71.60
32706;DHT22;19094;50.972;3.538;2023-05-10T08:47:49;17.40;71.30
32706;DHT22;19094;50.972;3.538;2023-05-10T08:50:17;17.40;71.50
32706;DHT22;19094;50.972;3.538;2023-05-10T08:52:46;17.40;71.60
32706;DHT22;19094;50.972;3.538;2023-05-10T08:55:13;17.30;71.80
32706;DHT22;19094;50.972;3.538;2023-05-10T08:57:39;17.30;72.40
32706;DHT22;19094;50.972;3.538;2023-05-10T09:00:05;17.40;74.00
32706;DHT22;19094;50.972;3.538;2023-05-10T09:02:31;17.30;74.30
32706;DHT22;19094;50.972;3.538;2023-05-10T09:04:57;17.30;74.70
32706;DHT22;19094;50.972;3.538;2023-05-10T09:07:23;17.40;74.90
32706;DHT22;19094;50.972;3.538;2023-05-10T09:09:49;17.40;74.70
32706;DHT22;19094;50.972;3.538;2023-05-10T09:12:15;17.40;74.40
32706;DHT22;19094;50.972;3.538;2023-05-10T09:14:42;17.50;73.50
32706;DHT22;19094;50.972;3.538;2023-05-10T09:17:09;17.60;73.30
32706;DHT22;19094;50.972;3.538;2023-05-10T09:19:35;17.60;72.60
32706;DHT22;19094;50.972;3.538;2023-05-10T09:22:01;17.70;72.30
32706;DHT22;19094;50.972;3.538;2023-05-10T09:24:29;17.60;72.60
32706;DHT22;19094;50.972;3.538;2023-05-10T09:26:57;17.70;72.50
32706;DHT22;19094;50.972;3.538;2023-05-10T09:29:23;17.80;72.20
32706;DHT22;19094;50.972;3.538;2023-05-10T09:31:52;17.80;71.80
32706;DHT22;19094;50.972;3.538;2023-05-10T09:34:31;17.80;71.30
32706;DHT22;19094;50.972;3.538;2023-05-10T09:37:02;17.80;71.50
32706;DHT22;19094;50.972;3.538;2023-05-10T09:39:37;18.00;71.20
32706;DHT22;19094;50.972;3.538;2023-05-10T09:42:09;18.00;71.10
32706;DHT22;19094;50.972;3.538;2023-05-10T09:44:35;18.20;70.00
32706;DHT22;19094;50.972;3.538;2023-05-10T09:47:01;18.20;70.70
32706;DHT22;19094;50.972;3.538;2023-05-10T09:49:28;18.10;71.10
32706;DHT22;19094;50.972;3.538;2023-05-10T09:52:01;18.10;71.20
32706;DHT22;19094;50.972;3.538;2023-05-10T09:54:28;18.10;71.60
32706;DHT22;19094;50.972;3.538;2023-05-10T09:56:53;18.10;71.10
32706;DHT22;19094;50.972;3.538;2023-05-10T09:59:19;18.10;71.10
32706;DHT22;19094;50.972;3.538;2023-05-10T10:01:51;18.20;71.20
32706;DHT22;19094;50.972;3.538;2023-05-10T10:04:17;18.40;70.60
32706;DHT22;19094;50.972;3.538;2023-05-10T10:06:42;18.60;69.80
32706;DHT22;19094;50.972;3.538;2023-05-10T10:09:09;18.60;69.50
32706;DHT22;19094;50.972;3.538;2023-05-10T10:11:38;18.80;68.50
32706;DHT22;19094;50.972;3.538;2023-05-10T10:14:05;18.80;68.40
32706;DHT22;19094;50.972;3.538;2023-05-10T10:16:31;18.80;68.20
32706;DHT22;19094;50.972;3.538;2023-05-10T10:18:57;18.90;68.00
32706;DHT22;19094;50.972;3.538;2023-05-10T10:21:23;19.00;67.80
32706;DHT22;19094;50.972;3.538;2023-05-10T10:23:50;19.00;67.70
32706;DHT22;19094;50.972;3.538;2023-05-10T10:26:17;19.00;67.60
32706;DHT22;19094;50.972;3.538;2023-05-10T10:29:04;19.00;66.80
32706;DHT22;19094;50.972;3.538;2023-05-10T10:31:51;19.00;66.20
32706;DHT22;19094;50.972;3.538;2023-05-10T10:34:28;18.90;66.50
32706;DHT22;19094;50.972;3.538;2023-05-10T10:36:55;18.80;66.70
32706;DHT22;19094;50.972;3.538;2023-05-10T10:39:22;18.80;66.80
32706;DHT22;19094;50.972;3.538;2023-05-10T10:41:53;18.70;66.90
32706;DHT22;19094;50.972;3.538;2023-05-10T10:47:27;18.70;67.10
32706;DHT22;19094;50.972;3.538;2023-05-10T10:52:53;18.50;68.10
32706;DHT22;19094;50.972;3.538;2023-05-10T10:55:20;18.40;68.00
32706;DHT22;19094;50.972;3.538;2023-05-10T10:57:55;18.40;68.30
32706;DHT22;19094;50.972;3.538;2023-05-10T11:00:33;18.40;68.70
32706;DHT22;19094;50.972;3.538;2023-05-10T11:03:08;18.40;68.30
32706;DHT22;19094;50.972;3.538;2023-05-10T11:10:48;18.60;68.10
32706;DHT22;19094;50.972;3.538;2023-05-10T11:13:15;18.60;68.00
32706;DHT22;19094;50.972;3.538;2023-05-10T11:15:48;18.60;68.40
32706;DHT22;19094;50.972;3.538;2023-05-10T11:18:18;18.60;68.10
32706;DHT22;19094;50.972;3.538;2023-05-10T11:20:44;18.50;67.50
32706;DHT22;19094;50.972;3.538;2023-05-10T11:23:15;18.60;68.60
32706;DHT22;19094;50.972;3.538;2023-05-10T11:25:43;18.70;67.90
32706;DHT22;19094;50.972;3.538;2023-05-10T11:28:10;18.70;67.50
32706;DHT22;19094;50.972;3.538;2023-05-10T11:30:39;18.80;68.20
32706;DHT22;19094;50.972;3.538;2023-05-10T11:33:06;18.90;67.30
32706;DHT22;19094;50.972;3.538;2023-05-10T11:35:40;19.00;67.30
32706;DHT22;19094;50.972;3.538;2023-05-10T11:38:10;19.10;67.20
32706;DHT22;19094;50.972;3.538;2023-05-10T11:40:37;19.10;67.10
32706;DHT22;19094;50.972;3.538;2023-05-10T11:43:03;19.20;66.90
32706;DHT22;19094;50.972;3.538;2023-05-10T11:45:32;19.20;67.20
32706;DHT22;19094;50.972;3.538;2023-05-10T11:47:59;19.30;66.60
32706;DHT22;19094;50.972;3.538;2023-05-10T11:50:25;19.30;67.00
32706;DHT22;19094;50.972;3.538;2023-05-10T11:52:55;19.40;66.40
32706;DHT22;19094;50.972;3.538;2023-05-10T11:55:21;19.40;66.60
32706;DHT22;19094;50.972;3.538;2023-05-10T11:57:47;19.40;66.10
32706;DHT22;19094;50.972;3.538;2023-05-10T12:00:16;19.40;65.90
32706;DHT22;19094;50.972;3.538;2023-05-10T12:02:42;19.50;65.60
32706;DHT22;19094;50.972;3.538;2023-05-10T12:05:08;19.50;65.70
32706;DHT22;19094;50.972;3.538;2023-05-10T12:07:35;19.50;65.00
32706;DHT22;19094;50.972;3.538;2023-05-10T12:10:09;19.50;65.00
32706;DHT22;19094;50.972;3.538;2023-05-10T12:12:39;19.60;64.60
32706;DHT22;19094;50.972;3.538;2023-05-10T12:15:22;19.70;64.40
32706;DHT22;19094;50.972;3.538;2023-05-10T12:17:49;19.70;64.00
32706;DHT22;19094;50.972;3.538;2023-05-10T12:20:20;19.70;64.30
32706;DHT22;19094;50.972;3.538;2023-05-10T12:22:47;19.70;64.20
32706;DHT22;19094;50.972;3.538;2023-05-10T12:25:14;19.70;64.80
32706;DHT22;19094;50.972;3.538;2023-05-10T12:27:40;19.60;64.80
32706;DHT22;19094;50.972;3.538;2023-05-10T12:30:07;19.50;66.00
32706;DHT22;19094;50.972;3.538;2023-05-10T12:32:43;19.50;67.00
32706;DHT22;19094;50.972;3.538;2023-05-10T12:35:09;19.50;66.80
32706;DHT22;19094;50.972;3.538;2023-05-10T12:37:36;19.40;66.60
32706;DHT22;19094;50.972;3.538;2023-05-10T12:40:08;19.40;66.20
32706;DHT22;19094;50.972;3.538;2023-05-10T12:42:35;19.30;66.70
32706;DHT22;19094;50.972;3.538;2023-05-10T12:45:02;19.30;67.00
32706;DHT22;19094;50.972;3.538;2023-05-10T12:47:28;19.20;67.40
32706;DHT22;19094;50.972;3.538;2023-05-10T12:49:53;19.10;67.90
32706;DHT22;19094;50.972;3.538;2023-05-10T12:52:19;19.10;67.90
32706;DHT22;19094;50.972;3.538;2023-05-10T12:54:45;19.10;68.90
32706;DHT22;19094;50.972;3.538;2023-05-10T12:57:12;19.10;67.20
32706;DHT22;19094;50.972;3.538;2023-05-10T12:59:38;19.00;67.20
32706;DHT22;19094;50.972;3.538;2023-05-10T13:02:03;19.00;66.60
32706;DHT22;19094;50.972;3.538;2023-05-10T13:04:29;19.00;66.70
32706;DHT22;19094;50.972;3.538;2023-05-10T13:06:55;19.00;66.20
32706;DHT22;19094;50.972;3.538;2023-05-10T13:09:27;19.10;67.50
32706;DHT22;19094;50.972;3.538;2023-05-10T13:11:54;19.00;67.60
32706;DHT22;19094;50.972;3.538;2023-05-10T13:14:20;19.00;66.80
32706;DHT22;19094;50.972;3.538;2023-05-10T13:16:47;19.00;66.70
32706;DHT22;19094;50.972;3.538;2023-05-10T13:19:16;19.10;67.90
32706;DHT22;19094;50.972;3.538;2023-05-10T13:21:42;19.00;67.20
32706;DHT22;19094;50.972;3.538;2023-05-10T13:24:08;19.00;66.90
32706;DHT22;19094;50.972;3.538;2023-05-10T13:26:33;19.10;66.50
32706;DHT22;19094;50.972;3.538;2023-05-10T13:28:59;19.10;66.20
32706;DHT22;19094;50.972;3.538;2023-05-10T13:31:25;19.10;66.10
32706;DHT22;19094;50.972;3.538;2023-05-10T13:33:51;19.20;65.90
32706;DHT22;19094;50.972;3.538;2023-05-10T13:36:16;19.20;65.60
32706;DHT22;19094;50.972;3.538;2023-05-10T13:38:43;19.20;64.60
32706;DHT22;19094;50.972;3.538;2023-05-10T13:41:09;19.20;64.40
32706;DHT22;19094;50.972;3.538;2023-05-10T13:43:35;19.20;63.40
32706;DHT22;19094;50.972;3.538;2023-05-10T13:46:01;19.30;63.80
32706;DHT22;19094;50.972;3.538;2023-05-10T13:48:27;19.30;63.80
32706;DHT22;19094;50.972;3.538;2023-05-10T13:50:53;19.40;62.70
32706;DHT22;19094;50.972;3.538;2023-05-10T13:53:18;19.30;63.00
32706;DHT22;19094;50.972;3.538;2023-05-10T13:55:44;19.30;62.90
32706;DHT22;19094;50.972;3.538;2023-05-10T13:58:09;19.30;62.90
32706;DHT22;19094;50.972;3.538;2023-05-10T14:00:36;19.40;62.50
32706;DHT22;19094;50.972;3.538;2023-05-10T14:03:01;19.50;62.60
32706;DHT22;19094;50.972;3.538;2023-05-10T14:05:27;19.50;60.90
32706;DHT22;19094;50.972;3.538;2023-05-10T14:07:53;19.50;60.00
32706;DHT22;19094;50.972;3.538;2023-05-10T14:10:19;19.50;60.00
32706;DHT22;19094;50.972;3.538;2023-05-10T14:12:45;19.40;60.60
32706;DHT22;19094;50.972;3.538;2023-05-10T14:15:11;19.50;61.00
32706;DHT22;19094;50.972;3.538;2023-05-10T14:17:37;19.50;61.20
32706;DHT22;19094;50.972;3.538;2023-05-10T14:20:03;19.50;61.10
32706;DHT22;19094;50.972;3.538;2023-05-10T14:22:29;19.50;61.00
32706;DHT22;19094;50.972;3.538;2023-05-10T14:24:55;19.50;61.50
32706;DHT22;19094;50.972;3.538;2023-05-10T14:27:20;19.60;60.50
32706;DHT22;19094;50.972;3.538;2023-05-10T14:29:47;19.70;60.60
32706;DHT22;19094;50.972;3.538;2023-05-10T14:32:13;19.80;59.50
32706;DHT22;19094;50.972;3.538;2023-05-10T14:34:38;19.90;60.20
32706;DHT22;19094;50.972;3.538;2023-05-10T14:37:04;19.90;59.30
32706;DHT22;19094;50.972;3.538;2023-05-10T14:39:30;19.90;59.30
32706;DHT22;19094;50.972;3.538;2023-05-10T14:41:56;19.90;59.90
32706;DHT22;19094;50.972;3.538;2023-05-10T14:44:21;19.90;59.00
32706;DHT22;19094;50.972;3.538;2023-05-10T14:46:47;20.00;59.90
32706;DHT22;19094;50.972;3.538;2023-05-10T14:49:13;20.00;59.80
32706;DHT22;19094;50.972;3.538;2023-05-10T14:51:39;20.00;59.50
32706;DHT22;19094;50.972;3.538;2023-05-10T14:54:05;20.00;59.80
32706;DHT22;19094;50.972;3.538;2023-05-10T14:56:31;20.10;58.90
32706;DHT22;19094;50.972;3.538;2023-05-10T14:58:57;20.20;59.70
32706;DHT22;19094;50.972;3.538;2023-05-10T15:01:23;20.30;59.20
32706;DHT22;19094;50.972;3.538;2023-05-10T15:03:48;20.40;58.40
32706;DHT22;19094;50.972;3.538;2023-05-10T15:06:15;20.50;58.30
32706;DHT22;19094;50.972;3.538;2023-05-10T15:08:43;20.60;57.20
32706;DHT22;19094;50.972;3.538;2023-05-10T15:11:09;20.70;56.40
32706;DHT22;19094;50.972;3.538;2023-05-10T15:13:34;20.80;56.60
32706;DHT22;19094;50.972;3.538;2023-05-10T15:16:01;20.90;58.00
32706;DHT22;19094;50.972;3.538;2023-05-10T15:18:26;21.00;57.40
32706;DHT22;19094;50.972;3.538;2023-05-10T15:20:52;21.00;56.80
32706;DHT22;19094;50.972;3.538;2023-05-10T15:23:18;21.10;56.60
32706;DHT22;19094;50.972;3.538;2023-05-10T15:25:43;21.00;56.10
32706;DHT22;19094;50.972;3.538;2023-05-10T15:28:09;21.10;56.30
32706;DHT22;19094;50.972;3.538;2023-05-10T15:30:35;21.10;56.30
32706;DHT22;19094;50.972;3.538;2023-05-10T15:33:01;21.10;55.50
32706;DHT22;19094;50.972;3.538;2023-05-10T15:35:26;21.10;55.40
32706;DHT22;19094;50.972;3.538;2023-05-10T15:37:52;21.10;54.50
32706;DHT22;19094;50.972;3.538;2023-05-10T15:40:18;21.20;55.50
32706;DHT22;19094;50.972;3.538;2023-05-10T15:42:43;21.20;55.50
32706;DHT22;19094;50.972;3.538;2023-05-10T15:45:10;21.30;56.60
32706;DHT22;19094;50.972;3.538;2023-05-10T15:47:36;21.40;55.70
32706;DHT22;19094;50.972;3.538;2023-05-10T15:50:05;21.50;54.30